Time;durP1;ratioP1;P1;durP2;ratioP2;P2;SDS_P1;SDS_P2;PMS_P1;PMS_P2;Temp;Humidity;BMP_temperature;BMP_pressure;BME280_temperature;BME280_humidity;BME280_pressure;Samples;Min_cycle;Max_cycle;Signal;HPM_P1;HPM_P2
2022/06/24 00:04:25;;;;;;;5.47;3.43;;;;;;;;;;10363264;28;20108;-73
2022/06/24 00:09:26;;;;;;;5.38;3.58;;;;;;;;;;10385547;28;20036;-73
2022/06/24 00:14:27;;;;;;;5.57;2.80;;;;;;;;;;10388977;28;20601;-71
2022/06/24 00:19:28;;;;;;;7.97;2.70;;;;;;;;;;10362291;28;20089;-71
2022/06/24 00:24:29;;;;;;;4.43;2.63;;;;;;;;;;10380403;28;20026;-73
2022/06/24 00:29:31;;;;;;;4.53;2.70;;;;;;;;;;10366265;28;20646;-74
2022/06/24 00:34:35;;;;;;;5.35;2.92;;;;;;;;;;10369847;28;20026;-73
2022/06/24 00:39:36;;;;;;;6.63;3.28;;;;;;;;;;10381148;28;20480;-74
2022/06/24 00:44:43;;;;;;;7.00;3.60;;;;;;;;;;10376420;28;20022;-73
2022/06/24 00:49:45;;;;;;;7.13;3.35;;;;;;;;;;10376549;28;20051;-76
2022/06/24 00:54:46;;;;;;;5.50;3.78;;;;;;;;;;10343106;28;20089;-74
2022/06/24 00:59:47;;;;;;;8.02;3.53;;;;;;;;;;10383845;28;20018;-76
2022/06/24 01:04:47;;;;;;;4.13;3.28;;;;;;;;;;10368935;28;20026;-74
2022/06/24 01:09:47;;;;;;;7.07;3.38;;;;;;;;;;10382537;28;20041;-73
2022/06/24 01:14:48;;;;;;;9.32;3.78;;;;;;;;;;10360604;28;20456;-74
2022/06/24 01:19:48;;;;;;;5.32;3.28;;;;;;;;;;10380640;28;20018;-73
2022/06/24 01:24:48;;;;;;;6.13;3.05;;;;;;;;;;10382602;28;20042;-72
2022/06/24 01:29:49;;;;;;;9.05;3.60;;;;;;;;;;10368575;28;20029;-75
2022/06/24 01:34:49;;;;;;;6.53;4.10;;;;;;;;;;10368381;28;20104;-77
2022/06/24 01:39:49;;;;;;;10.20;5.23;;;;;;;;;;10346920;28;21093;-77
2022/06/24 01:44:50;;;;;;;8.93;5.72;;;;;;;;;;10385843;28;20037;-74
2022/06/24 01:49:50;;;;;;;9.07;5.32;;;;;;;;;;10370642;28;20038;-74
2022/06/24 01:54:50;;;;;;;12.43;5.63;;;;;;;;;;10358651;28;20080;-74
2022/06/24 01:59:51;;;;;;;14.63;5.78;;;;;;;;;;10386677;28;20044;-74
2022/06/24 02:04:54;;;;;;;11.52;5.75;;;;;;;;;;10381894;28;20033;-69
2022/06/24 02:15:13;;;;;;;10.18;6.35;;;;;;;;;;10357057;28;20112;-72
2022/06/24 02:20:13;;;;;;;7.47;5.63;;;;;;;;;;10381663;28;20472;-73
2022/06/24 02:25:14;;;;;;;19.27;6.78;;;;;;;;;;10360958;28;20026;-70
2022/06/24 02:30:14;;;;;;;12.10;4.93;;;;;;;;;;10360274;28;20021;-74
2022/06/24 02:35:14;;;;;;;8.48;6.10;;;;;;;;;;10380709;28;20013;-73
2022/06/24 02:45:35;;;;;;;10.40;4.95;;;;;;;;;;10364563;28;20703;-78
2022/06/24 02:50:39;;;;;;;10.07;5.13;;;;;;;;;;10374211;28;20022;-74
2022/06/24 02:55:39;;;;;;;11.35;6.05;;;;;;;;;;10357459;28;20476;-73
2022/06/24 03:00:41;;;;;;;13.30;6.13;;;;;;;;;;10390689;28;20112;-74
2022/06/24 03:05:42;;;;;;;9.05;5.75;;;;;;;;;;10379809;28;20092;-74
2022/06/24 03:10:43;;;;;;;10.88;4.97;;;;;;;;;;10365575;28;20104;-75
2022/06/24 03:15:45;;;;;;;10.90;5.50;;;;;;;;;;10372413;28;20396;-74
2022/06/24 03:20:45;;;;;;;9.68;5.43;;;;;;;;;;10376665;28;20048;-70
2022/06/24 03:25:46;;;;;;;10.77;5.57;;;;;;;;;;10368055;28;20109;-73
2022/06/24 03:30:47;;;;;;;13.50;5.68;;;;;;;;;;10347261;28;20415;-73
2022/06/24 03:35:47;;;;;;;9.05;5.50;;;;;;;;;;10398258;28;20185;-76
2022/06/24 03:40:47;;;;;;;13.38;6.40;;;;;;;;;;10351032;28;20033;-75
2022/06/24 03:45:47;;;;;;;10.57;6.20;;;;;;;;;;10403899;28;20029;-74
2022/06/24 03:50:48;;;;;;;14.43;6.43;;;;;;;;;;10381481;28;20024;-75
2022/06/24 03:55:48;;;;;;;11.93;3.92;;;;;;;;;;10378489;28;20108;-77
2022/06/24 04:00:49;;;;;;;10.43;5.07;;;;;;;;;;10373426;28;20017;-73
2022/06/24 04:05:49;;;;;;;12.75;5.55;;;;;;;;;;10397516;28;20026;-73
2022/06/24 04:10:49;;;;;;;6.78;4.65;;;;;;;;;;10344937;28;20042;-72
2022/06/24 04:15:49;;;;;;;13.63;5.75;;;;;;;;;;10364457;28;20129;-75
2022/06/24 04:20:50;;;;;;;9.77;5.53;;;;;;;;;;10384527;28;20080;-75
2022/06/24 04:25:50;;;;;;;18.88;6.40;;;;;;;;;;10351628;28;20108;-75
2022/06/24 04:30:51;;;;;;;15.18;8.13;;;;;;;;;;10344146;28;20021;-74
2022/06/24 04:35:51;;;;;;;14.13;6.35;;;;;;;;;;10377748;28;20080;-76
2022/06/24 04:40:51;;;;;;;20.67;6.90;;;;;;;;;;10351921;28;20109;-76
2022/06/24 04:45:51;;;;;;;15.82;7.60;;;;;;;;;;10383103;28;20028;-78
2022/06/24 04:50:52;;;;;;;16.85;6.85;;;;;;;;;;10364316;28;20026;-74
2022/06/24 04:55:52;;;;;;;21.40;7.38;;;;;;;;;;10350558;28;20116;-70
2022/06/24 05:00:52;;;;;;;19.58;9.38;;;;;;;;;;10367009;28;20458;-73
2022/06/24 05:05:52;;;;;;;14.43;8.07;;;;;;;;;;10357891;28;20175;-77
2022/06/24 05:10:53;;;;;;;21.25;8.75;;;;;;;;;;10354843;28;20288;-70
2022/06/24 05:15:54;;;;;;;20.85;8.45;;;;;;;;;;10367967;28;20511;-76
2022/06/24 05:20:54;;;;;;;16.98;7.82;;;;;;;;;;10346530;28;20025;-75
2022/06/24 05:25:55;;;;;;;20.30;8.67;;;;;;;;;;10355010;28;20036;-69
2022/06/24 05:30:58;;;;;;;14.97;7.10;;;;;;;;;;10363935;28;20331;-69
2022/06/24 05:35:59;;;;;;;25.45;9.57;;;;;;;;;;10372901;28;20632;-68
2022/06/24 05:40:59;;;;;;;18.45;8.40;;;;;;;;;;10367762;28;20030;-69
2022/06/24 05:45:59;;;;;;;20.98;8.63;;;;;;;;;;10374328;28;20030;-73
2022/06/24 05:51:06;;;;;;;15.03;8.83;;;;;;;;;;10373678;28;20025;-72
2022/06/24 05:56:06;;;;;;;20.08;7.45;;;;;;;;;;10371846;28;20487;-68
2022/06/24 06:01:10;;;;;;;12.50;7.60;;;;;;;;;;10378221;28;20026;-76
2022/06/24 06:06:11;;;;;;;17.55;7.60;;;;;;;;;;10371180;28;20500;-72
2022/06/24 06:11:21;;;;;;;13.88;7.25;;;;;;;;;;10364747;28;20038;-68
2022/06/24 06:16:22;;;;;;;10.50;6.28;;;;;;;;;;10355256;28;20076;-72
2022/06/24 06:21:22;;;;;;;12.98;5.75;;;;;;;;;;10368058;28;20137;-74
2022/06/24 06:26:22;;;;;;;5.67;4.77;;;;;;;;;;10348632;28;20026;-74
2022/06/24 06:31:23;;;;;;;7.53;4.47;;;;;;;;;;10352997;28;20466;-75
2022/06/24 06:36:23;;;;;;;9.37;4.93;;;;;;;;;;10351305;28;20594;-74
2022/06/24 06:41:23;;;;;;;12.98;4.78;;;;;;;;;;10356732;28;20021;-73
2022/06/24 06:46:23;;;;;;;5.50;3.72;;;;;;;;;;10347577;28;20025;-74
2022/06/24 06:51:24;;;;;;;3.50;2.92;;;;;;;;;;10380937;28;20508;-71
2022/06/24 06:56:24;;;;;;;5.95;3.80;;;;;;;;;;10349183;28;20036;-75
2022/06/24 07:01:24;;;;;;;16.30;6.03;;;;;;;;;;10351445;28;20623;-74
2022/06/24 07:06:24;;;;;;;9.27;5.40;;;;;;;;;;10378433;28;20109;-68
2022/06/24 07:11:25;;;;;;;7.87;4.67;;;;;;;;;;10375707;28;20046;-74
2022/06/24 07:16:26;;;;;;;5.93;2.30;;;;;;;;;;10361450;28;20416;-74
2022/06/24 07:21:26;;;;;;;6.32;2.60;;;;;;;;;;10360788;28;20429;-73
2022/06/24 07:26:26;;;;;;;12.23;2.60;;;;;;;;;;10341641;28;20402;-75
2022/06/24 07:31:26;;;;;;;4.25;1.98;;;;;;;;;;10340473;28;20531;-76
2022/06/24 07:36:27;;;;;;;6.38;2.40;;;;;;;;;;10341517;28;20026;-74
2022/06/24 07:41:27;;;;;;;7.63;2.67;;;;;;;;;;10359291;28;20029;-73
2022/06/24 07:46:27;;;;;;;6.40;2.72;;;;;;;;;;10340022;28;20026;-72
2022/06/24 07:51:28;;;;;;;6.68;2.40;;;;;;;;;;10359552;28;20034;-75
2022/06/24 08:01:47;;;;;;;7.25;2.55;;;;;;;;;;10359707;28;20057;-72
2022/06/24 08:06:49;;;;;;;4.28;2.72;;;;;;;;;;10338015;28;20533;-77
2022/06/24 08:11:50;;;;;;;3.13;2.30;;;;;;;;;;10375687;28;20641;-73
2022/06/24 08:16:50;;;;;;;6.73;3.57;;;;;;;;;;10360661;28;20029;-76
2022/06/24 08:21:50;;;;;;;4.30;3.00;;;;;;;;;;10344580;28;20022;-73
2022/06/24 08:26:51;;;;;;;10.02;3.40;;;;;;;;;;10346237;28;20030;-68
2022/06/24 08:31:51;;;;;;;4.07;2.47;;;;;;;;;;10373771;28;20420;-73
2022/06/24 08:36:51;;;;;;;2.65;1.98;;;;;;;;;;10373398;28;20025;-71
2022/06/24 08:41:55;;;;;;;3.35;2.22;;;;;;;;;;10376841;28;20037;-68
2022/06/24 08:46:55;;;;;;;9.05;2.38;;;;;;;;;;10359116;28;20033;-74
2022/06/24 08:51:57;;;;;;;3.63;1.70;;;;;;;;;;10342508;28;20026;-73
2022/06/24 08:56:58;;;;;;;5.43;1.90;;;;;;;;;;10375170;28;20471;-75
2022/06/24 09:01:58;;;;;;;4.38;1.88;;;;;;;;;;10342916;28;20056;-71
2022/06/24 09:07:00;;;;;;;4.20;1.75;;;;;;;;;;10359269;28;20067;-70
2022/06/24 09:12:02;;;;;;;5.82;1.83;;;;;;;;;;10367924;28;20077;-70
2022/06/24 09:17:06;;;;;;;4.45;1.77;;;;;;;;;;10324451;28;20393;-72
2022/06/24 09:22:06;;;;;;;2.95;1.70;;;;;;;;;;10325139;28;20087;-68
2022/06/24 09:27:07;;;;;;;2.65;1.40;;;;;;;;;;10333429;28;20393;-71
2022/06/24 09:32:08;;;;;;;3.00;1.90;;;;;;;;;;10323934;28;20149;-73
2022/06/24 09:37:08;;;;;;;7.53;1.60;;;;;;;;;;10311242;28;20635;-73
2022/06/24 09:42:18;;;;;;;2.05;1.17;;;;;;;;;;10338091;28;20038;-69
2022/06/24 09:47:22;;;;;;;4.47;1.77;;;;;;;;;;10324061;28;20032;-73
2022/06/24 09:52:23;;;;;;;2.47;1.40;;;;;;;;;;10317677;28;20468;-72
2022/06/24 09:57:24;;;;;;;3.35;1.73;;;;;;;;;;10354748;28;20675;-73
2022/06/24 10:02:27;;;;;;;3.05;1.40;;;;;;;;;;10311958;28;20022;-71
2022/06/24 10:07:31;;;;;;;2.65;1.10;;;;;;;;;;10368653;28;20407;-75
2022/06/24 10:12:34;;;;;;;3.90;1.70;;;;;;;;;;10324180;28;20092;-73
2022/06/24 10:17:35;;;;;;;7.43;1.90;;;;;;;;;;10330073;28;20065;-68
2022/06/24 10:22:41;;;;;;;2.65;1.20;;;;;;;;;;10314378;28;20101;-74
2022/06/24 10:27:56;;;;;;;20.17;3.55;;;;;;;;;;10335504;28;20025;-71
2022/06/24 10:33:10;;;;;;;1.27;0.80;;;;;;;;;;10339945;28;20027;-74
2022/06/24 10:38:11;;;;;;;4.93;1.52;;;;;;;;;;10324369;28;20066;-70
2022/06/24 10:43:11;;;;;;;4.95;1.60;;;;;;;;;;10503193;23;20136;-72
2022/06/24 10:48:11;;;;;;;1.50;0.90;;;;;;;;;;10385098;28;20029;-74
2022/06/24 10:53:12;;;;;;;2.17;1.02;;;;;;;;;;10384761;28;20091;-71
2022/06/24 10:58:13;;;;;;;0.95;0.60;;;;;;;;;;10386053;28;20025;-76
2022/06/24 11:03:16;;;;;;;4.93;1.17;;;;;;;;;;10388231;28;20025;-73
2022/06/24 11:08:20;;;;;;;1.38;1.10;;;;;;;;;;10387393;28;20026;-71
2022/06/24 11:13:23;;;;;;;5.65;1.85;;;;;;;;;;10394090;28;20521;-74
2022/06/24 11:18:23;;;;;;;2.88;1.60;;;;;;;;;;10392646;28;20084;-73
2022/06/24 11:23:25;;;;;;;6.45;2.20;;;;;;;;;;10387561;28;20037;-73
2022/06/24 11:28:29;;;;;;;3.97;1.85;;;;;;;;;;10404240;28;20492;-74
2022/06/24 11:33:29;;;;;;;7.93;2.47;;;;;;;;;;10400384;28;20104;-73
2022/06/24 11:38:32;;;;;;;5.32;1.85;;;;;;;;;;10386638;28;20024;-72
2022/06/24 11:43:32;;;;;;;4.35;2.30;;;;;;;;;;10418355;28;20435;-75
2022/06/24 11:48:32;;;;;;;5.35;1.80;;;;;;;;;;10384890;28;20039;-73
2022/06/24 11:53:33;;;;;;;5.38;2.45;;;;;;;;;;10417872;28;20036;-74
2022/06/24 11:58:35;;;;;;;6.63;2.42;;;;;;;;;;10408881;28;20025;-73
2022/06/24 12:03:35;;;;;;;2.08;1.70;;;;;;;;;;10417512;28;20021;-69
2022/06/24 12:08:36;;;;;;;5.37;1.97;;;;;;;;;;10419366;28;20085;-66
2022/06/24 12:13:37;;;;;;;4.32;2.03;;;;;;;;;;10434816;28;20027;-74
2022/06/24 12:18:37;;;;;;;7.05;1.95;;;;;;;;;;10410276;28;20029;-71
2022/06/24 12:23:38;;;;;;;11.00;2.05;;;;;;;;;;10385361;28;20027;-73
2022/06/24 12:28:39;;;;;;;4.10;1.90;;;;;;;;;;10380940;28;20697;-75
2022/06/24 12:33:55;;;;;;;3.53;1.60;;;;;;;;;;10384617;28;20029;-69
2022/06/24 12:38:55;;;;;;;6.72;1.92;;;;;;;;;;10385051;28;20563;-71
2022/06/24 12:43:56;;;;;;;5.70;2.30;;;;;;;;;;10382528;28;20056;-73
2022/06/24 12:54:15;;;;;;;5.18;2.03;;;;;;;;;;10402167;28;20022;-76
2022/06/24 12:59:16;;;;;;;4.73;2.10;;;;;;;;;;10387442;28;20013;-74
2022/06/24 13:04:17;;;;;;;4.78;3.13;;;;;;;;;;10404939;28;20032;-68
2022/06/24 13:09:17;;;;;;;3.00;2.17;;;;;;;;;;10381861;28;20028;-74
2022/06/24 13:14:17;;;;;;;5.67;2.57;;;;;;;;;;10415564;28;20400;-73
2022/06/24 13:19:17;;;;;;;10.88;2.35;;;;;;;;;;10415623;28;20487;-68
2022/06/24 13:24:19;;;;;;;5.10;2.28;;;;;;;;;;10399625;28;20025;-72
2022/06/24 13:29:19;;;;;;;5.25;2.30;;;;;;;;;;10381617;28;20017;-71
2022/06/24 13:34:20;;;;;;;5.00;2.65;;;;;;;;;;10382889;28;20033;-73
2022/06/24 13:39:20;;;;;;;3.20;2.88;;;;;;;;;;10413472;28;20108;-73
2022/06/24 13:44:21;;;;;;;2.35;2.15;;;;;;;;;;10380711;28;20045;-73
2022/06/24 13:49:21;;;;;;;7.60;2.53;;;;;;;;;;10400669;28;20100;-74
2022/06/24 13:54:22;;;;;;;3.90;2.17;;;;;;;;;;10377958;28;20033;-72
2022/06/24 13:59:22;;;;;;;2.80;2.10;;;;;;;;;;10387416;28;21102;-70
2022/06/24 14:04:23;;;;;;;2.20;2.00;;;;;;;;;;10389593;28;20018;-75
2022/06/24 14:09:23;;;;;;;4.82;2.15;;;;;;;;;;10380836;28;20263;-67
2022/06/24 14:14:23;;;;;;;3.90;1.80;;;;;;;;;;10393766;28;20017;-75
2022/06/24 14:19:23;;;;;;;3.33;2.05;;;;;;;;;;10426168;28;20119;-75
2022/06/24 14:24:32;;;;;;;3.00;2.17;;;;;;;;;;10410774;28;20021;-69
2022/06/24 14:29:33;;;;;;;6.25;2.60;;;;;;;;;;10406233;28;20025;-74
2022/06/24 14:34:34;;;;;;;4.03;1.67;;;;;;;;;;10411552;28;20025;-73
2022/06/24 14:44:53;;;;;;;3.90;2.13;;;;;;;;;;10411797;28;20303;-76
2022/06/24 14:49:53;;;;;;;3.35;2.13;;;;;;;;;;10412266;28;20021;-75
2022/06/24 14:54:53;;;;;;;5.80;3.42;;;;;;;;;;10398186;28;20021;-74
2022/06/24 14:59:53;;;;;;;3.83;2.58;;;;;;;;;;10419976;28;20013;-74
2022/06/24 15:04:54;;;;;;;4.30;1.95;;;;;;;;;;10401055;28;20478;-74
2022/06/24 15:09:54;;;;;;;3.03;1.83;;;;;;;;;;10410382;28;20049;-71
2022/06/24 15:14:54;;;;;;;3.95;1.83;;;;;;;;;;10383589;28;20455;-72
2022/06/24 15:19:54;;;;;;;2.95;1.65;;;;;;;;;;10387359;28;20049;-71
2022/06/24 15:24:55;;;;;;;2.80;1.83;;;;;;;;;;10418556;28;20514;-74
2022/06/24 15:29:56;;;;;;;6.45;2.28;;;;;;;;;;10385633;28;20084;-69
2022/06/24 15:34:56;;;;;;;2.45;2.03;;;;;;;;;;10386737;28;20617;-73
2022/06/24 15:39:57;;;;;;;4.00;2.27;;;;;;;;;;10385588;28;20052;-73
2022/06/24 15:44:57;;;;;;;2.97;2.30;;;;;;;;;;10385657;28;20303;-74
2022/06/24 15:49:57;;;;;;;7.22;2.00;;;;;;;;;;10386338;28;20040;-73
2022/06/24 15:54:58;;;;;;;3.97;2.30;;;;;;;;;;10417571;28;20591;-74
2022/06/24 15:59:59;;;;;;;7.10;2.15;;;;;;;;;;10412272;28;20107;-69
2022/06/24 16:04:59;;;;;;;10.18;2.22;;;;;;;;;;10390216;28;20117;-74
2022/06/24 16:09:59;;;;;;;3.10;2.25;;;;;;;;;;10401699;28;20156;-73
2022/06/24 16:15:03;;;;;;;6.25;2.60;;;;;;;;;;10385082;28;20045;-73
2022/06/24 16:20:03;;;;;;;5.47;2.35;;;;;;;;;;10384952;28;20018;-73
2022/06/24 16:30:23;;;;;;;4.22;2.10;;;;;;;;;;10405387;28;20276;-72
2022/06/24 16:35:23;;;;;;;6.17;2.20;;;;;;;;;;10414993;28;20022;-72
2022/06/24 16:40:24;;;;;;;6.90;2.33;;;;;;;;;;10403068;28;20523;-75
2022/06/24 16:45:24;;;;;;;4.57;2.50;;;;;;;;;;10401434;28;20119;-73
2022/06/24 16:50:24;;;;;;;6.72;2.47;;;;;;;;;;10384592;28;20029;-74
2022/06/24 16:55:25;;;;;;;4.32;2.20;;;;;;;;;;10416085;28;20408;-72
2022/06/24 17:00:25;;;;;;;5.53;2.43;;;;;;;;;;10428826;28;20122;-75
2022/06/24 17:05:25;;;;;;;5.88;2.97;;;;;;;;;;10382268;28;20399;-74
2022/06/24 17:10:25;;;;;;;8.13;3.03;;;;;;;;;;10414322;28;20040;-73
2022/06/24 17:15:26;;;;;;;3.63;2.10;;;;;;;;;;10400432;28;20095;-71
2022/06/24 17:20:26;;;;;;;8.95;2.63;;;;;;;;;;10382065;28;20020;-69
2022/06/24 17:25:27;;;;;;;10.38;3.03;;;;;;;;;;10400667;28;20024;-73
2022/06/24 17:30:27;;;;;;;5.03;2.53;;;;;;;;;;10382529;28;20494;-69
2022/06/24 17:35:27;;;;;;;5.73;3.03;;;;;;;;;;10380627;28;20120;-72
2022/06/24 17:40:28;;;;;;;4.70;3.10;;;;;;;;;;10383518;28;20068;-71
2022/06/24 17:45:29;;;;;;;3.53;2.67;;;;;;;;;;10366906;28;20601;-72
2022/06/24 17:50:29;;;;;;;6.15;3.30;;;;;;;;;;10398247;28;20025;-71
2022/06/24 17:55:29;;;;;;;12.65;3.20;;;;;;;;;;10373316;28;20033;-73
2022/06/24 18:00:29;;;;;;;4.40;2.70;;;;;;;;;;10427803;28;20020;-72
2022/06/24 18:05:30;;;;;;;4.57;3.30;;;;;;;;;;10378751;28;20029;-73
2022/06/24 18:10:30;;;;;;;4.07;3.20;;;;;;;;;;10404562;28;20459;-70
2022/06/24 18:15:31;;;;;;;4.25;3.30;;;;;;;;;;10411810;28;20052;-75
2022/06/24 18:20:31;;;;;;;6.15;3.30;;;;;;;;;;10412134;28;20039;-70
2022/06/24 18:25:31;;;;;;;5.18;3.63;;;;;;;;;;10411420;28;20029;-70
2022/06/24 18:30:32;;;;;;;6.32;4.05;;;;;;;;;;10409540;28;20033;-76
2022/06/24 18:35:32;;;;;;;10.30;3.67;;;;;;;;;;10411325;28;20943;-74
2022/06/24 18:40:32;;;;;;;4.97;3.33;;;;;;;;;;10411545;28;21022;-73
2022/06/24 18:45:33;;;;;;;5.85;3.40;;;;;;;;;;10407948;28;20093;-76
2022/06/24 18:50:33;;;;;;;9.57;3.88;;;;;;;;;;10410012;28;20033;-74
2022/06/24 18:55:33;;;;;;;12.52;3.78;;;;;;;;;;10415593;28;20244;-72
2022/06/24 19:00:34;;;;;;;8.88;5.53;;;;;;;;;;10437079;28;20049;-72
2022/06/24 19:05:34;;;;;;;7.63;4.53;;;;;;;;;;10422882;28;20543;-74
2022/06/24 19:10:35;;;;;;;8.00;4.93;;;;;;;;;;10431989;28;20048;-72
2022/06/24 19:15:35;;;;;;;10.93;4.93;;;;;;;;;;10434453;28;20119;-75
2022/06/24 19:20:35;;;;;;;7.03;3.78;;;;;;;;;;10431421;28;20155;-75
2022/06/24 19:25:36;;;;;;;7.50;3.28;;;;;;;;;;10419096;28;20036;-72
2022/06/24 19:30:36;;;;;;;6.72;3.33;;;;;;;;;;10414063;28;20035;-73
2022/06/24 19:35:36;;;;;;;4.10;3.28;;;;;;;;;;10403358;28;20587;-75
2022/06/24 19:40:36;;;;;;;9.93;3.88;;;;;;;;;;10416877;28;20376;-70
2022/06/24 19:45:37;;;;;;;5.80;3.50;;;;;;;;;;10410815;28;20507;-73
2022/06/24 19:50:37;;;;;;;12.85;4.15;;;;;;;;;;10414428;28;20448;-73
2022/06/24 19:55:37;;;;;;;7.37;4.40;;;;;;;;;;10419738;28;20029;-74
2022/06/24 20:00:37;;;;;;;15.68;7.45;;;;;;;;;;10412448;28;20017;-70
2022/06/24 20:05:47;;;;;;;5.13;4.63;;;;;;;;;;10385686;28;20018;-75
2022/06/24 20:10:47;;;;;;;6.22;4.47;;;;;;;;;;10416828;28;20499;-78
2022/06/24 20:15:48;;;;;;;15.88;5.20;;;;;;;;;;10402395;28;20036;-74
2022/06/24 20:20:49;;;;;;;11.30;5.28;;;;;;;;;;10383860;28;20022;-73
2022/06/24 20:25:53;;;;;;;5.53;4.22;;;;;;;;;;10384293;28;20025;-72
2022/06/24 20:30:54;;;;;;;8.30;4.60;;;;;;;;;;10398456;28;20167;-74
2022/06/24 20:35:56;;;;;;;7.32;4.38;;;;;;;;;;10384391;28;20475;-74
2022/06/24 20:40:56;;;;;;;4.88;4.35;;;;;;;;;;10403020;28;20025;-76
2022/06/24 20:45:58;;;;;;;6.97;4.32;;;;;;;;;;10418447;28;20033;-75
2022/06/24 20:50:58;;;;;;;7.07;3.88;;;;;;;;;;10413754;28;20025;-74
2022/06/24 20:55:59;;;;;;;8.13;3.60;;;;;;;;;;10429206;28;20086;-75
2022/06/24 21:00:59;;;;;;;7.82;4.30;;;;;;;;;;10408745;28;20032;-69
2022/06/24 21:05:59;;;;;;;8.07;3.88;;;;;;;;;;10414661;28;20031;-74
2022/06/24 21:11:00;;;;;;;8.35;3.55;;;;;;;;;;10406650;28;20029;-75
2022/06/24 21:16:00;;;;;;;6.67;4.13;;;;;;;;;;10408513;28;20508;-73
2022/06/24 21:21:02;;;;;;;7.43;3.88;;;;;;;;;;10414692;28;20346;-75
2022/06/24 21:26:02;;;;;;;4.90;4.25;;;;;;;;;;10382191;28;20026;-74
2022/06/24 21:31:03;;;;;;;10.43;4.78;;;;;;;;;;10378044;28;20029;-76
2022/06/24 21:36:03;;;;;;;6.43;3.53;;;;;;;;;;10382882;28;20411;-75
2022/06/24 21:41:04;;;;;;;4.97;4.05;;;;;;;;;;10382511;28;20072;-70
2022/06/24 21:46:04;;;;;;;7.90;3.80;;;;;;;;;;10399697;28;20136;-73
2022/06/24 21:51:04;;;;;;;5.85;4.38;;;;;;;;;;10412633;28;20760;-70
2022/06/24 21:56:04;;;;;;;5.75;4.35;;;;;;;;;;10413418;28;20029;-76
2022/06/24 22:01:05;;;;;;;11.27;4.72;;;;;;;;;;10426099;28;20052;-73
2022/06/24 22:06:05;;;;;;;7.80;5.20;;;;;;;;;;10412563;28;20044;-73
2022/06/24 22:11:05;;;;;;;6.03;5.20;;;;;;;;;;10380097;28;20025;-68
2022/06/24 22:16:05;;;;;;;6.75;4.93;;;;;;;;;;10398550;28;20025;-75
2022/06/24 22:21:06;;;;;;;15.80;5.13;;;;;;;;;;10412778;28;20018;-74
2022/06/24 22:26:06;;;;;;;13.32;4.55;;;;;;;;;;10378905;28;20014;-74
2022/06/24 22:31:07;;;;;;;6.00;4.50;;;;;;;;;;10412718;28;20030;-76
2022/06/24 22:36:07;;;;;;;7.40;4.10;;;;;;;;;;10411894;28;20028;-74
2022/06/24 22:41:07;;;;;;;5.95;4.43;;;;;;;;;;10380221;28;20041;-75
2022/06/24 22:46:07;;;;;;;10.20;3.70;;;;;;;;;;10410301;28;20030;-76
2022/06/24 22:51:08;;;;;;;11.25;4.65;;;;;;;;;;10390576;28;20025;-75
2022/06/24 22:56:08;;;;;;;6.93;4.15;;;;;;;;;;10381437;28;20550;-77
2022/06/24 23:01:08;;;;;;;5.80;4.27;;;;;;;;;;10424839;28;20029;-73
2022/06/24 23:06:09;;;;;;;11.60;4.40;;;;;;;;;;10412332;28;20056;-74
2022/06/24 23:11:09;;;;;;;9.27;6.03;;;;;;;;;;10411572;28;20017;-75
2022/06/24 23:16:09;;;;;;;7.47;4.30;;;;;;;;;;10397092;28;20100;-74
2022/06/24 23:21:09;;;;;;;5.75;4.43;;;;;;;;;;10411063;28;20384;-69
2022/06/24 23:26:10;;;;;;;4.75;4.00;;;;;;;;;;10412609;28;20547;-70
2022/06/24 23:31:10;;;;;;;5.35;4.05;;;;;;;;;;10410697;28;20584;-79
2022/06/24 23:36:10;;;;;;;6.10;4.63;;;;;;;;;;10383479;28;20071;-74
2022/06/24 23:41:11;;;;;;;8.63;4.47;;;;;;;;;;10417036;28;20454;-75
2022/06/24 23:46:11;;;;;;;7.45;4.97;;;;;;;;;;10403699;28;20040;-75
2022/06/24 23:51:29;;;;;;;6.32;4.75;;;;;;;;;;10416289;28;20040;-74
2022/06/24 23:56:30;;;;;;;7.07;5.82;;;;;;;;;;10415752;28;20035;-70
